Reno, NV (89501)

5:26 AM PDT on October 20, 2014 (GMT -0700)
UNR Campus, LMR Roof | Change Station
CLOSE
Current Station
Personal Weather Station
Location: Reno, NV
Elevation: 4570 ft
Nearby Weather Stations

Elev 4570 ft 39.54 °N, 119.81 °W | Updated 2 seconds ago

Clear
Clear
47.3 °F
Feels Like 47 °F
N
1.5
Wind Variable Wind from North
Gusts 0.0 mph

Today
High -- | Low -- °F
--% Chance of Precip.
Yesterday
High -- | Low -- °F
Precip. -- in
7:14 AM 6:12 PM
Waning Crescent, 11% visible
Pressure 29.85 in
Visibility 10.0 miles
Clouds Clear
Windchill 47 °F
Dew Point 34 °F
Humidity 59%
Rainfall 0.00 in
Snow Depth 1 in
UV 0 out of 12
Pollen 2.70 out of 12
Air Quality Not available.
Flu Activity No Activity
METAR KRNO 201155Z 00000KT 10SM CLR 08/01 A2996 RMK AO2 SLP106 T00830011 10156 20078 57001

More Conditions Fewer Conditions

Pressure 29.85 in
Visibility 10.0 miles
Clouds Clear
Windchill 47 °F
Dew Point 34 °F
Humidity 59%
Rainfall 0.00 in
Snow Depth 1 in
UV 0 out of 12
Pollen 2.70 out of 12
Air Quality Not available.
Flu Activity No Activity
METAR KRNO 201155Z 00000KT 10SM CLR 08/01 A2996 RMK AO2 SLP106 T00830011 10156 20078 57001

More Conditions Fewer Conditions

10-Day Weather Forecast

Almanac

Astronomy

Oct. 20, 2014 Rise Set
Actual Time 7:14 AM PDT 6:12 PM PDT
Civil Twilight 6:47 AM PDT 6:40 PM PDT
Nautical Twilight 6:15 AM PDT 7:11 PM PDT
Astronomical Twilight 5:44 AM PDT 7:42 PM PDT
Moon 4:08 AM PDT 4:37 PM PDT
Length of Visible Light 11h 52m
Length of Day
10h 58m
Waning Crescent, 11% of the Moon is Illuminated
Today
Waning Crescent
Oct 23
New
Oct 30
First Quarter
Nov 6
Full
Nov 14
Last Quarter

Today's Extremes

State Highs State Lows

Community

WunderPhotos

Upload Photos

1,763,349 photos uploaded!

WunderBlogs® & News

Nearby

Snow Depth

Station Depth Elevation
Mt. Rose Ski Area 1 in 8850 ft
Marlette Lake 0 in 8000 ft
Big Creek Summit 1 in 8700 ft
Sheldon 0 in 5860 ft
Lewis Peak 0 in 7400 ft

Earthquake Activity

City Distance Mag. Time & Date
Dixon Lane-Meadow Creek, California 154 miles 2.5 5:32 PM PDT
2014-10-18
Smith Valley, Nevada 61 miles 2.9 10:59 AM PDT
2014-10-18
Minimum magnitude displayed is 2.5.

Coastal Water Temperatures

Place Temperature
No Stations Reporting

Nearby Weather Stations